Carson Valley, Nevada Weather observations

Data are for 10 minute period ending at time listed.
 Day   Time   Solar   Ave.   Ave.  Ave.  Vector  Max.   Baro.   Total    
  of    of     Rad.   Air    Rel.  Wind   Wind   Wind  Press.  Precip.   
Year   Day            Temp.  Hum.  Speed  Dir.   Gust                    
2015   (PST)  Kw/m2    F      %     mph   deg.    mph    mb.     in.     
-------------------------------------------------------------------------
 141   13:50   0.53   55.9    63    6.9    64    11.2   853.0    0.00 
 141   14:00   0.39   55.7    61    4.7    55     8.6   852.9    0.00 
 141   14:10   0.27   55.4    61    2.9    53     5.8   852.9    0.00 
 141   14:20   0.26   55.5    58    1.8   169     4.7   852.9    0.00 
 141   14:30   0.18   53.2    67    8.9   258    14.0   852.9    0.00 
 141   14:40   0.13   50.3    75    9.6   264    14.8   852.9    0.00 
 141   14:50   0.10   49.4    76    9.3   263    14.8   852.8    0.00 
 141   15:00   0.07   48.7    81    9.8   260    16.7   852.7    0.02 
 141   15:10   0.07   49.0    77    8.7   275    14.1   852.5    0.04 
 141   15:20   0.08   49.2    76    6.1   262    14.8   852.4    0.04 
 141   15:30   0.10   49.1    81    2.7   216     5.3   852.4    0.00 
 141   15:40   0.13   50.5    79    1.8   243     3.9   852.4    0.00 
 141   15:50   0.14   51.6    74    3.0   270     5.5   852.4    0.00 
 141   16:00   0.14   52.2    71    1.9   225     3.9   852.5    0.00 
 141   16:10   0.16   51.7    78    7.9   154    11.8   852.5    0.00 
 141   16:20   0.18   50.7    81    8.5   154    11.5   852.5    0.00 
 141   16:30   0.18   51.0    79    6.9   155    11.0   852.7    0.00 
 141   16:40   0.15   51.1    77    5.6   159     8.1   852.8    0.00 
 141   16:50   0.10   51.0    78    4.5   150     6.8   852.9    0.00 
 141   17:00   0.07   50.8    76    4.7   149     6.9   852.9    0.00 
 141   17:10   0.05   50.6    76    4.7   139     7.5   852.9    0.01 
 141   17:20   0.04   50.7    76    2.9   138     4.1   853.0    0.00 
 141   17:30   0.04   50.2    80    3.0   115     4.2   853.0    0.01 
 141   17:40   0.03   49.6    82    3.0   106     7.4   852.9    0.00 
 141   17:50   0.03   49.4    85    3.9    94     6.1   853.0    0.01 
 141   18:00   0.03   49.1    86    4.9    80     6.9   853.0    0.00 
 141   18:10   0.02   48.8    85    3.7    72     5.6   853.0    0.00 
 141   18:20   0.02   48.9    86    3.1    73     4.6   853.0    0.00 
 141   18:30   0.01   48.9    86    1.8   124     2.8   853.1    0.00 
 141   18:40   0.01   48.9    84    1.6   107     2.3   853.2    0.00 
 141   18:50   0.01   49.0    85    0.1    88     1.3   853.2    0.00 
 141   19:00   0.00   49.0    85    0.5     2     2.0   853.3    0.00 
 141   19:10   0.00   48.7    85    2.1    29     4.0   853.4    0.01 
 141   19:20   0.00   48.5    86    0.5    43     1.7   853.5    0.00 
 141   19:30   0.00   48.3    86    0.1    75     0.9   853.5    0.00 
 141   19:40   0.00   48.3    86    0.0     0     0.0   853.5    0.01 
 141   19:50   0.00   48.5    86    0.6   235     1.8   853.5    0.00 
 141   20:00   0.00   48.4    86    1.8   184     2.6   853.5    0.00 
 141   20:10   0.00   48.4    85    1.7   139     2.5   853.6    0.00 
 141   20:20   0.00   48.5    85    1.5   183     2.2   853.6    0.00 
 141   20:30   0.00   48.5    86    1.9   231     3.4   853.7    0.00 
 141   20:40   0.00   48.3    88    2.4   218     3.1   853.8    0.00 
 141   20:50   0.00   48.2    88    2.5   195     3.6   853.8    0.00 
 141   21:00   0.00   48.1    88    3.1   184     4.4   853.8    0.00 
 141   21:10   0.00   47.9    86    3.3   171     4.8   853.8    0.00 
 141   21:20   0.00   48.0    86    3.7   120     5.6   853.8    0.00 
 141   21:30   0.00   48.0    88    4.1   127     6.1   853.8    0.00 
 141   21:40   0.00   48.0    88    3.7   143     5.6   853.8    0.00 
 141   21:50   0.00   48.2    89    3.7   164     5.3   853.8    0.00 
 141   22:00   0.00   48.0    89    2.8   184     4.2   853.8    0.00 
 141   22:10   0.00   48.0    89    1.9   186     3.1   853.9    0.00 
 141   22:20   0.00   48.0    89    1.3   244     2.7   853.8    0.00 
 141   22:30   0.00   47.8    89    1.8   213     2.9   853.8    0.00 
 141   22:40   0.00   47.8    89    1.1   210     1.9   853.8    0.00 
 141   22:50   0.00   47.9    89    0.6   317     1.6   853.8    0.00 
 141   23:00   0.00   47.8    88    0.4   294     0.9   853.8    0.00 
 141   23:10   0.00   47.9    88    0.7   253     1.4   853.8    0.00 
 141   23:20   0.00   47.9    88    0.2   254     1.2   853.8    0.00 
 141   23:30   0.00   47.9    88    0.4   266     1.7   853.8    0.00 
 141   23:40   0.00   47.9    89    1.3   287     1.9   853.8    0.00 
 141   23:50   0.00   47.9    90    1.6   303     2.3   853.9    0.00 
 142    0:00   0.00   47.7    90    1.6   304     2.4   853.9    0.00 
 142    0:10   0.00   47.7    92    2.3   304     3.1   853.8    0.00 
 142    0:20   0.00   47.7    92    1.8   338     3.1   853.8    0.00 
 142    0:30   0.00   47.6    92    1.9    57     2.7   853.8    0.00 
 142    0:40   0.00   47.5    93    2.1    75     3.4   853.8    0.00 
 142    0:50   0.00   47.4    93    1.0    95     1.9   853.8    0.00 
 142    1:00   0.00   47.5    92    0.3    96     1.0   853.8    0.00 
 142    1:10   0.00   47.6    92    2.2   269     3.1   853.7    0.00 
 142    1:20   0.00   47.3    93    2.2   278     3.1   853.5    0.00 
 142    1:30   0.00   47.2    93    1.4   295     2.7   853.5    0.00 
 142    1:40   0.00   47.3    93    0.0   297     0.7   853.5    0.00 
 142    1:50   0.00   47.3    92    1.3    85     1.8   853.5    0.00 
 142    2:00   0.00   47.3    92    1.9    97     2.7   853.5    0.00 
 142    2:10   0.00   47.1    93    1.4    87     2.5   853.5    0.00 
 142    2:20   0.00   47.0    93    1.6    93     2.1   853.5    0.00 
 142    2:30   0.00   47.0    93    1.5   108     2.0   853.5    0.00 
 142    2:40   0.00   47.0    93    0.8   110     1.6   853.5    0.00 
 142    2:50   0.00   47.2    93    0.9   137     2.0   853.5    0.00 
 142    3:00   0.00   47.6    93    1.2   170     1.9   853.6    0.00 
 142    3:10   0.00   47.6    93    1.3   218     2.1   853.6    0.00 
 142    3:20   0.00   47.5    93    1.6   295     2.4   853.6    0.00 
 142    3:30   0.00   47.3    93    1.5   312     2.2   853.5    0.00 
 142    3:40   0.00   47.4    93    0.9   311     2.2   853.5    0.00 
 142    3:50   0.00   47.3    93    1.5   314     2.0   853.5    0.00 
 142    4:00   0.00   47.3    93    0.8   340     1.2   853.6    0.00 
 142    4:10   0.00   47.3    93    1.0   355     1.9   853.6    0.00 
 142    4:20   0.00   47.5    93    1.3   350     1.9   853.8    0.00 
 142    4:30   0.00   47.6    92    1.0   302     1.8   853.8    0.00 
 142    4:40   0.00   47.4    93    1.7   274     2.8   853.8    0.00 
 142    4:50   0.00   47.2    93    1.6   273     2.4   853.8    0.00 
 142    5:00   0.00   47.3    93    0.7   270     1.8   853.8    0.00 
 142    5:10   0.00   47.4    93    0.0     0     0.0   853.8    0.00 
 142    5:20   0.01   47.5    93    0.8    83     1.7   853.8    0.00 
 142    5:30   0.01   47.6    93    0.7   104     1.6   853.8    0.00 
 142    5:40   0.02   47.6    92    0.3   354     1.2   853.8    0.00 
 142    5:50   0.02   47.8    92    0.8    12     1.8   854.0    0.00 
 142    6:00   0.02   48.0    91    1.2    54     2.0   854.1    0.00 
 142    6:10   0.06   48.1    90    1.0    48     1.8   854.1    0.00 
 142    6:20   0.09   48.5    90    0.4   314     1.5   854.1    0.00 
 142    6:30   0.12   48.7    89    1.3   295     3.1   854.1    0.00 
 142    6:40   0.11   48.8    88    1.8   306     2.6   854.2    0.00 
 142    6:50   0.13   48.9    86    1.5   315     3.1   854.3    0.00 
 142    7:00   0.14   49.2    85    1.5   304     2.7   854.4    0.00 
 142    7:10   0.15   49.4    83    0.8   347     1.9   854.5    0.00 
 142    7:20   0.23   50.5    82    0.5   359     1.6   854.5    0.00 
 142    7:30   0.27   51.0    78    1.0     4     2.2   854.5    0.00 
 142    7:40   0.30   52.2    76    0.7    97     2.3   854.6    0.00 
 142    7:50   0.51   53.0    72    1.3   176     2.6   854.7    0.00 
 142    8:00   0.35   53.2    70    1.4   267     4.5   854.8    0.00 
 142    8:10   0.39   53.3    72    1.5   349     5.7   854.9    0.00 
 142    8:20   0.28   53.1    71    2.4    39     6.3   855.0    0.00 
 142    8:30   0.26   52.4    73    3.8     3     6.0   855.0    0.00 
 142    8:40   0.29   52.5    73    2.8   346     5.8   855.0    0.00 
 142    8:50   0.31   53.0    73    5.0    24     8.3   855.0    0.00 
 142    9:00   0.36   53.2    70    5.0    26     7.6   855.0    0.00 
 142    9:10   0.37   53.5    70    4.3    28     6.9   855.0    0.00 
 142    9:20   0.36   53.8    69    4.8    32     9.1   855.0    0.00 
 142    9:30   0.40   54.0    70    4.3    42     7.7   855.0    0.00 
 142    9:40   0.49   54.8    68    4.9    31     8.3   855.0    0.00 
 142    9:50   0.43   55.3    66    3.9    47     7.5   855.0    0.00 
 142   10:00   0.45   55.7    67    5.3    61     8.8   854.9    0.00 
 142   10:10   0.80   56.4    64    5.1    42    10.0   854.9    0.00 
 142   10:20   0.68   56.9    63    5.4    74     9.0   854.9    0.00 
 142   10:30   0.40   55.5    63    5.1    64     9.3   854.9    0.00 
 142   10:40   0.98   57.0    61    4.0    50     8.3   854.9    0.00 
 142   10:50   1.29   59.0    56    3.0    84     6.6   854.8    0.00 
 142   11:00   0.86   59.5    56    2.0    55     6.3   854.9    0.00 
 142   11:10   0.34   57.8    59    3.4   240     7.8   854.9    0.00 
 142   11:20   0.27   54.4    63   10.8   276    16.1   854.8    0.00 
 142   11:30   0.30   52.9    65   11.8   272    18.6   854.7    0.00 
 142   11:40   0.28   52.8    64   11.2   278    16.7   854.6    0.00 
 142   11:50   0.30   53.7    62    9.4   276    15.6   854.3    0.00 
 142   12:00   0.44   55.5    58    6.3   273    10.5   854.3    0.00 
 142   12:10   0.89   57.5    56    4.4   274    10.0   854.2    0.00 
 142   12:20   0.53   58.3    51    5.5   282     9.7   854.1    0.00 
 142   12:30   0.41   58.5    51    2.8   256     7.2   854.1    0.00 
 142   12:40   0.39   58.4    50    2.9   325     6.1   854.1    0.00 
 142   12:50   0.49   59.4    48    2.5     9     5.4   854.1    0.00 
 142   13:00   0.89   60.7    46    2.2    64     5.0   854.1    0.00 
 142   13:10   0.82   61.5    47    3.4   196     7.2   853.9    0.00 
 142   13:20   1.07   61.7    46    3.7   174     6.7   853.9    0.00 
 142   13:30   1.00   62.3    44    3.0   122     6.9   853.8    0.00 
 142   13:40   0.99   61.9    43    4.0   111     7.8   853.6    0.00 

Return to Carson Valley graphs page.


Western Regional Climate Center,wrcc@dri.edu